sensor_id;sensor_type;location;lat;lon;timestamp;P1;durP1;ratioP1;P2;durP2;ratioP2
26540;SDS011;14206;50.202;10.948;2023-02-24T00:02:10;9.90;;;7.50;;
26540;SDS011;14206;50.202;10.948;2023-02-24T00:04:40;8.68;;;7.10;;
26540;SDS011;14206;50.202;10.948;2023-02-24T00:07:08;9.32;;;6.90;;
26540;SDS011;14206;50.202;10.948;2023-02-24T00:09:36;9.77;;;7.22;;
26540;SDS011;14206;50.202;10.948;2023-02-24T00:12:05;11.95;;;8.30;;
26540;SDS011;14206;50.202;10.948;2023-02-24T00:14:38;13.10;;;9.10;;
26540;SDS011;14206;50.202;10.948;2023-02-24T00:17:06;10.50;;;8.27;;
26540;SDS011;14206;50.202;10.948;2023-02-24T00:19:34;11.82;;;8.35;;
26540;SDS011;14206;50.202;10.948;2023-02-24T00:22:03;10.38;;;7.60;;
26540;SDS011;14206;50.202;10.948;2023-02-24T00:24:31;10.13;;;7.13;;
26540;SDS011;14206;50.202;10.948;2023-02-24T00:26:59;13.25;;;8.50;;
26540;SDS011;14206;50.202;10.948;2023-02-24T00:29:28;10.48;;;8.02;;
26540;SDS011;14206;50.202;10.948;2023-02-24T00:31:57;10.88;;;7.97;;
26540;SDS011;14206;50.202;10.948;2023-02-24T00:34:26;11.35;;;8.70;;
26540;SDS011;14206;50.202;10.948;2023-02-24T00:36:56;12.90;;;9.25;;
26540;SDS011;14206;50.202;10.948;2023-02-24T00:39:23;11.02;;;8.40;;
26540;SDS011;14206;50.202;10.948;2023-02-24T00:41:56;11.65;;;8.30;;
26540;SDS011;14206;50.202;10.948;2023-02-24T00:44:30;11.50;;;7.85;;
26540;SDS011;14206;50.202;10.948;2023-02-24T00:46:59;11.38;;;7.15;;
26540;SDS011;14206;50.202;10.948;2023-02-24T00:49:27;10.20;;;7.18;;
26540;SDS011;14206;50.202;10.948;2023-02-24T00:51:55;9.50;;;7.53;;
26540;SDS011;14206;50.202;10.948;2023-02-24T00:54:23;11.68;;;8.30;;
26540;SDS011;14206;50.202;10.948;2023-02-24T00:56:56;10.80;;;7.20;;
26540;SDS011;14206;50.202;10.948;2023-02-24T00:59:25;8.55;;;6.80;;
26540;SDS011;14206;50.202;10.948;2023-02-24T01:01:52;10.15;;;7.55;;
26540;SDS011;14206;50.202;10.948;2023-02-24T01:04:20;9.75;;;7.00;;
26540;SDS011;14206;50.202;10.948;2023-02-24T01:06:49;12.40;;;7.50;;
26540;SDS011;14206;50.202;10.948;2023-02-24T01:09:18;11.07;;;7.57;;
26540;SDS011;14206;50.202;10.948;2023-02-24T01:11:47;8.40;;;6.72;;
26540;SDS011;14206;50.202;10.948;2023-02-24T01:14:34;8.80;;;6.80;;
26540;SDS011;14206;50.202;10.948;2023-02-24T01:17:02;9.25;;;7.20;;
26540;SDS011;14206;50.202;10.948;2023-02-24T01:19:30;9.38;;;6.90;;
26540;SDS011;14206;50.202;10.948;2023-02-24T01:22:03;8.63;;;6.40;;
26540;SDS011;14206;50.202;10.948;2023-02-24T01:24:33;10.55;;;8.05;;
26540;SDS011;14206;50.202;10.948;2023-02-24T01:27:02;9.68;;;7.20;;
26540;SDS011;14206;50.202;10.948;2023-02-24T01:29:29;8.95;;;6.55;;
26540;SDS011;14206;50.202;10.948;2023-02-24T01:31:57;9.68;;;6.82;;
26540;SDS011;14206;50.202;10.948;2023-02-24T01:34:24;9.02;;;6.95;;
26540;SDS011;14206;50.202;10.948;2023-02-24T01:36:55;9.55;;;6.50;;
26540;SDS011;14206;50.202;10.948;2023-02-24T01:39:22;7.90;;;6.18;;
26540;SDS011;14206;50.202;10.948;2023-02-24T01:41:51;8.80;;;6.50;;
26540;SDS011;14206;50.202;10.948;2023-02-24T01:46:49;9.05;;;6.43;;
26540;SDS011;14206;50.202;10.948;2023-02-24T01:49:20;6.38;;;5.38;;
26540;SDS011;14206;50.202;10.948;2023-02-24T01:52:01;8.68;;;6.25;;
26540;SDS011;14206;50.202;10.948;2023-02-24T01:54:34;7.93;;;6.15;;
26540;SDS011;14206;50.202;10.948;2023-02-24T01:57:06;8.10;;;6.07;;
26540;SDS011;14206;50.202;10.948;2023-02-24T01:59:38;8.40;;;6.30;;
26540;SDS011;14206;50.202;10.948;2023-02-24T02:02:06;9.18;;;6.50;;
26540;SDS011;14206;50.202;10.948;2023-02-24T02:04:38;9.13;;;6.50;;
26540;SDS011;14206;50.202;10.948;2023-02-24T02:07:24;8.30;;;5.90;;
26540;SDS011;14206;50.202;10.948;2023-02-24T02:09:53;8.57;;;6.43;;
26540;SDS011;14206;50.202;10.948;2023-02-24T02:12:25;8.68;;;6.78;;
26540;SDS011;14206;50.202;10.948;2023-02-24T02:14:53;10.82;;;7.55;;
26540;SDS011;14206;50.202;10.948;2023-02-24T02:23:35;11.10;;;8.30;;
26540;SDS011;14206;50.202;10.948;2023-02-24T02:37:39;9.65;;;6.75;;
26540;SDS011;14206;50.202;10.948;2023-02-24T02:40:36;10.60;;;6.93;;
26540;SDS011;14206;50.202;10.948;2023-02-24T02:43:11;9.32;;;6.40;;
26540;SDS011;14206;50.202;10.948;2023-02-24T02:45:52;9.60;;;6.47;;
26540;SDS011;14206;50.202;10.948;2023-02-24T02:48:30;9.05;;;6.20;;
26540;SDS011;14206;50.202;10.948;2023-02-24T02:51:05;9.10;;;6.70;;
26540;SDS011;14206;50.202;10.948;2023-02-24T02:56:23;8.82;;;6.47;;
26540;SDS011;14206;50.202;10.948;2023-02-24T02:58:55;9.93;;;6.50;;
26540;SDS011;14206;50.202;10.948;2023-02-24T03:01:26;9.60;;;7.35;;
26540;SDS011;14206;50.202;10.948;2023-02-24T03:04:02;10.90;;;7.45;;
26540;SDS011;14206;50.202;10.948;2023-02-24T03:06:42;8.90;;;6.80;;
26540;SDS011;14206;50.202;10.948;2023-02-24T03:09:31;8.95;;;6.65;;
26540;SDS011;14206;50.202;10.948;2023-02-24T03:12:07;11.95;;;7.63;;
26540;SDS011;14206;50.202;10.948;2023-02-24T03:14:38;10.20;;;7.20;;
26540;SDS011;14206;50.202;10.948;2023-02-24T03:17:10;9.43;;;6.28;;
26540;SDS011;14206;50.202;10.948;2023-02-24T03:19:42;11.90;;;8.65;;
26540;SDS011;14206;50.202;10.948;2023-02-24T03:22:13;10.52;;;7.38;;
26540;SDS011;14206;50.202;10.948;2023-02-24T03:24:51;8.88;;;6.80;;
26540;SDS011;14206;50.202;10.948;2023-02-24T03:30:30;9.95;;;7.18;;
26540;SDS011;14206;50.202;10.948;2023-02-24T03:33:07;11.68;;;8.27;;
26540;SDS011;14206;50.202;10.948;2023-02-24T03:35:44;9.95;;;7.32;;
26540;SDS011;14206;50.202;10.948;2023-02-24T03:38:11;9.75;;;6.38;;
26540;SDS011;14206;50.202;10.948;2023-02-24T03:40:39;10.00;;;7.22;;
26540;SDS011;14206;50.202;10.948;2023-02-24T03:46:07;10.27;;;6.90;;
26540;SDS011;14206;50.202;10.948;2023-02-24T03:48:36;10.23;;;6.88;;
26540;SDS011;14206;50.202;10.948;2023-02-24T03:51:15;9.23;;;6.20;;
26540;SDS011;14206;50.202;10.948;2023-02-24T04:03:09;9.45;;;6.40;;
26540;SDS011;14206;50.202;10.948;2023-02-24T04:08:49;7.95;;;5.47;;
26540;SDS011;14206;50.202;10.948;2023-02-24T04:11:32;7.70;;;5.57;;
26540;SDS011;14206;50.202;10.948;2023-02-24T04:14:12;8.68;;;5.68;;
26540;SDS011;14206;50.202;10.948;2023-02-24T04:16:50;7.75;;;5.25;;
26540;SDS011;14206;50.202;10.948;2023-02-24T04:19:26;8.43;;;5.43;;
26540;SDS011;14206;50.202;10.948;2023-02-24T04:21:57;6.20;;;4.57;;
26540;SDS011;14206;50.202;10.948;2023-02-24T04:24:32;8.15;;;5.35;;
26540;SDS011;14206;50.202;10.948;2023-02-24T04:27:13;7.35;;;5.05;;
26540;SDS011;14206;50.202;10.948;2023-02-24T04:30:11;7.72;;;4.85;;
26540;SDS011;14206;50.202;10.948;2023-02-24T04:32:38;6.60;;;4.65;;
26540;SDS011;14206;50.202;10.948;2023-02-24T04:35:08;6.78;;;4.65;;
26540;SDS011;14206;50.202;10.948;2023-02-24T04:37:51;7.57;;;5.43;;
26540;SDS011;14206;50.202;10.948;2023-02-24T04:40:19;6.80;;;4.70;;
26540;SDS011;14206;50.202;10.948;2023-02-24T04:42:48;5.82;;;4.32;;
26540;SDS011;14206;50.202;10.948;2023-02-24T04:45:21;5.82;;;4.32;;
26540;SDS011;14206;50.202;10.948;2023-02-24T04:47:50;5.53;;;4.15;;
26540;SDS011;14206;50.202;10.948;2023-02-24T04:50:22;5.75;;;3.95;;
26540;SDS011;14206;50.202;10.948;2023-02-24T04:52:55;6.07;;;4.35;;
26540;SDS011;14206;50.202;10.948;2023-02-24T04:55:27;7.43;;;4.88;;
26540;SDS011;14206;50.202;10.948;2023-02-24T04:57:58;6.63;;;4.35;;
26540;SDS011;14206;50.202;10.948;2023-02-24T05:00:26;7.72;;;5.22;;
26540;SDS011;14206;50.202;10.948;2023-02-24T05:02:58;6.38;;;4.70;;
26540;SDS011;14206;50.202;10.948;2023-02-24T05:05:29;6.45;;;4.60;;
26540;SDS011;14206;50.202;10.948;2023-02-24T05:08:06;5.97;;;4.40;;
26540;SDS011;14206;50.202;10.948;2023-02-24T05:10:35;6.50;;;5.00;;
26540;SDS011;14206;50.202;10.948;2023-02-24T05:13:04;7.55;;;4.97;;
26540;SDS011;14206;50.202;10.948;2023-02-24T05:15:32;5.45;;;4.40;;
26540;SDS011;14206;50.202;10.948;2023-02-24T05:18:01;6.78;;;4.50;;
26540;SDS011;14206;50.202;10.948;2023-02-24T05:20:36;5.80;;;4.30;;
26540;SDS011;14206;50.202;10.948;2023-02-24T05:23:30;6.47;;;4.72;;
26540;SDS011;14206;50.202;10.948;2023-02-24T05:26:00;5.53;;;4.10;;
26540;SDS011;14206;50.202;10.948;2023-02-24T05:28:29;5.30;;;4.10;;
26540;SDS011;14206;50.202;10.948;2023-02-24T05:31:10;5.28;;;4.10;;
26540;SDS011;14206;50.202;10.948;2023-02-24T05:33:41;5.68;;;4.20;;
26540;SDS011;14206;50.202;10.948;2023-02-24T05:36:10;6.18;;;4.00;;
26540;SDS011;14206;50.202;10.948;2023-02-24T05:38:43;6.00;;;4.22;;
26540;SDS011;14206;50.202;10.948;2023-02-24T05:41:12;5.30;;;3.83;;
26540;SDS011;14206;50.202;10.948;2023-02-24T05:43:44;8.45;;;5.50;;
26540;SDS011;14206;50.202;10.948;2023-02-24T05:46:16;5.90;;;4.43;;
26540;SDS011;14206;50.202;10.948;2023-02-24T05:48:48;7.57;;;5.30;;
26540;SDS011;14206;50.202;10.948;2023-02-24T05:51:16;6.90;;;5.13;;
26540;SDS011;14206;50.202;10.948;2023-02-24T05:53:43;6.82;;;4.65;;
26540;SDS011;14206;50.202;10.948;2023-02-24T05:56:11;5.72;;;3.90;;
26540;SDS011;14206;50.202;10.948;2023-02-24T05:58:44;5.68;;;4.22;;
26540;SDS011;14206;50.202;10.948;2023-02-24T06:01:36;6.10;;;4.10;;
26540;SDS011;14206;50.202;10.948;2023-02-24T06:04:18;5.07;;;3.80;;
26540;SDS011;14206;50.202;10.948;2023-02-24T06:07:11;5.40;;;3.95;;
26540;SDS011;14206;50.202;10.948;2023-02-24T06:09:44;5.68;;;4.05;;
26540;SDS011;14206;50.202;10.948;2023-02-24T06:12:16;6.18;;;4.38;;
26540;SDS011;14206;50.202;10.948;2023-02-24T06:14:43;6.45;;;4.07;;
26540;SDS011;14206;50.202;10.948;2023-02-24T06:17:11;5.72;;;4.25;;
26540;SDS011;14206;50.202;10.948;2023-02-24T06:19:40;6.35;;;3.78;;
26540;SDS011;14206;50.202;10.948;2023-02-24T06:22:11;5.28;;;3.70;;
26540;SDS011;14206;50.202;10.948;2023-02-24T06:24:40;6.25;;;3.70;;
26540;SDS011;14206;50.202;10.948;2023-02-24T06:27:11;6.60;;;4.00;;
26540;SDS011;14206;50.202;10.948;2023-02-24T06:29:43;6.63;;;4.57;;
26540;SDS011;14206;50.202;10.948;2023-02-24T06:32:17;6.10;;;4.30;;
26540;SDS011;14206;50.202;10.948;2023-02-24T06:34:45;6.28;;;4.13;;
26540;SDS011;14206;50.202;10.948;2023-02-24T06:37:13;5.90;;;3.92;;
26540;SDS011;14206;50.202;10.948;2023-02-24T06:39:41;6.00;;;3.95;;
26540;SDS011;14206;50.202;10.948;2023-02-24T06:42:08;5.57;;;4.10;;
26540;SDS011;14206;50.202;10.948;2023-02-24T06:44:38;5.35;;;3.78;;
26540;SDS011;14206;50.202;10.948;2023-02-24T06:47:06;5.45;;;3.83;;
26540;SDS011;14206;50.202;10.948;2023-02-24T06:49:36;5.82;;;4.10;;
26540;SDS011;14206;50.202;10.948;2023-02-24T06:52:03;5.78;;;4.03;;
26540;SDS011;14206;50.202;10.948;2023-02-24T06:54:31;5.00;;;3.60;;
26540;SDS011;14206;50.202;10.948;2023-02-24T06:57:01;5.95;;;3.90;;
26540;SDS011;14206;50.202;10.948;2023-02-24T06:59:31;6.00;;;4.18;;
26540;SDS011;14206;50.202;10.948;2023-02-24T07:01:59;5.82;;;3.97;;
26540;SDS011;14206;50.202;10.948;2023-02-24T07:04:29;4.60;;;3.33;;
26540;SDS011;14206;50.202;10.948;2023-02-24T07:07:01;4.93;;;3.50;;
26540;SDS011;14206;50.202;10.948;2023-02-24T07:09:29;5.40;;;3.63;;
26540;SDS011;14206;50.202;10.948;2023-02-24T07:11:57;5.00;;;3.50;;
26540;SDS011;14206;50.202;10.948;2023-02-24T07:14:28;5.65;;;3.80;;
26540;SDS011;14206;50.202;10.948;2023-02-24T07:16:58;6.65;;;3.92;;
26540;SDS011;14206;50.202;10.948;2023-02-24T07:19:26;6.05;;;4.00;;
26540;SDS011;14206;50.202;10.948;2023-02-24T07:21:55;5.80;;;4.07;;
26540;SDS011;14206;50.202;10.948;2023-02-24T07:24:31;5.93;;;3.78;;
26540;SDS011;14206;50.202;10.948;2023-02-24T07:27:06;7.15;;;4.30;;
26540;SDS011;14206;50.202;10.948;2023-02-24T07:29:36;4.55;;;3.67;;
26540;SDS011;14206;50.202;10.948;2023-02-24T07:32:04;5.90;;;4.20;;
26540;SDS011;14206;50.202;10.948;2023-02-24T07:34:34;7.05;;;4.60;;
26540;SDS011;14206;50.202;10.948;2023-02-24T07:37:05;8.60;;;5.43;;
26540;SDS011;14206;50.202;10.948;2023-02-24T07:39:33;8.40;;;5.07;;
26540;SDS011;14206;50.202;10.948;2023-02-24T07:42:02;7.40;;;4.68;;
26540;SDS011;14206;50.202;10.948;2023-02-24T07:44:40;7.43;;;4.75;;
26540;SDS011;14206;50.202;10.948;2023-02-24T07:47:09;7.22;;;5.30;;
26540;SDS011;14206;50.202;10.948;2023-02-24T07:49:37;6.03;;;4.70;;
26540;SDS011;14206;50.202;10.948;2023-02-24T07:52:06;7.22;;;5.15;;
26540;SDS011;14206;50.202;10.948;2023-02-24T07:54:35;9.68;;;5.40;;
26540;SDS011;14206;50.202;10.948;2023-02-24T07:57:04;6.30;;;4.72;;
26540;SDS011;14206;50.202;10.948;2023-02-24T07:59:32;7.68;;;4.93;;
26540;SDS011;14206;50.202;10.948;2023-02-24T08:02:02;6.43;;;4.53;;
26540;SDS011;14206;50.202;10.948;2023-02-24T08:04:33;6.13;;;4.10;;
26540;SDS011;14206;50.202;10.948;2023-02-24T08:07:01;6.75;;;4.25;;
26540;SDS011;14206;50.202;10.948;2023-02-24T08:09:32;8.05;;;5.35;;
26540;SDS011;14206;50.202;10.948;2023-02-24T08:12:13;7.28;;;4.95;;
26540;SDS011;14206;50.202;10.948;2023-02-24T08:14:44;6.75;;;4.70;;
26540;SDS011;14206;50.202;10.948;2023-02-24T08:17:17;6.88;;;4.43;;
26540;SDS011;14206;50.202;10.948;2023-02-24T08:19:49;10.75;;;6.15;;
26540;SDS011;14206;50.202;10.948;2023-02-24T08:22:33;9.25;;;6.63;;
26540;SDS011;14206;50.202;10.948;2023-02-24T08:25:02;10.75;;;6.68;;
26540;SDS011;14206;50.202;10.948;2023-02-24T08:27:33;11.05;;;7.47;;
26540;SDS011;14206;50.202;10.948;2023-02-24T08:30:05;11.68;;;7.35;;
26540;SDS011;14206;50.202;10.948;2023-02-24T08:32:34;9.38;;;6.03;;
26540;SDS011;14206;50.202;10.948;2023-02-24T08:35:10;12.02;;;7.65;;
26540;SDS011;14206;50.202;10.948;2023-02-24T08:37:41;13.25;;;8.02;;
26540;SDS011;14206;50.202;10.948;2023-02-24T08:40:14;12.52;;;8.13;;
26540;SDS011;14206;50.202;10.948;2023-02-24T08:42:57;14.25;;;9.63;;
26540;SDS011;14206;50.202;10.948;2023-02-24T08:45:45;14.43;;;9.73;;
26540;SDS011;14206;50.202;10.948;2023-02-24T08:48:17;15.73;;;9.85;;
26540;SDS011;14206;50.202;10.948;2023-02-24T08:51:05;14.45;;;9.27;;
26540;SDS011;14206;50.202;10.948;2023-02-24T08:53:36;15.35;;;10.25;;
26540;SDS011;14206;50.202;10.948;2023-02-24T08:56:09;13.45;;;8.75;;
26540;SDS011;14206;50.202;10.948;2023-02-24T08:58:38;15.73;;;10.10;;
26540;SDS011;14206;50.202;10.948;2023-02-24T09:01:15;15.98;;;9.40;;
26540;SDS011;14206;50.202;10.948;2023-02-24T09:03:45;14.35;;;9.00;;
26540;SDS011;14206;50.202;10.948;2023-02-24T09:06:15;12.88;;;8.75;;
26540;SDS011;14206;50.202;10.948;2023-02-24T09:08:54;13.23;;;8.55;;
26540;SDS011;14206;50.202;10.948;2023-02-24T09:11:41;12.48;;;8.52;;
26540;SDS011;14206;50.202;10.948;2023-02-24T09:14:10;12.82;;;8.27;;
26540;SDS011;14206;50.202;10.948;2023-02-24T09:16:54;11.43;;;7.55;;
26540;SDS011;14206;50.202;10.948;2023-02-24T09:19:41;11.90;;;7.68;;
26540;SDS011;14206;50.202;10.948;2023-02-24T09:22:20;12.00;;;7.65;;
26540;SDS011;14206;50.202;10.948;2023-02-24T09:25:08;13.73;;;7.10;;
26540;SDS011;14206;50.202;10.948;2023-02-24T09:30:21;13.63;;;7.50;;
26540;SDS011;14206;50.202;10.948;2023-02-24T09:33:10;10.35;;;6.72;;
26540;SDS011;14206;50.202;10.948;2023-02-24T09:35:44;11.00;;;7.38;;
26540;SDS011;14206;50.202;10.948;2023-02-24T09:38:16;11.27;;;6.70;;
26540;SDS011;14206;50.202;10.948;2023-02-24T09:40:46;15.13;;;7.75;;
26540;SDS011;14206;50.202;10.948;2023-02-24T09:43:15;13.25;;;7.68;;
26540;SDS011;14206;50.202;10.948;2023-02-24T09:45:54;11.00;;;7.35;;
26540;SDS011;14206;50.202;10.948;2023-02-24T09:48:29;9.50;;;6.43;;
26540;SDS011;14206;50.202;10.948;2023-02-24T09:51:12;10.23;;;6.88;;
26540;SDS011;14206;50.202;10.948;2023-02-24T09:53:49;13.43;;;7.90;;
26540;SDS011;14206;50.202;10.948;2023-02-24T10:02:00;14.57;;;8.30;;
26540;SDS011;14206;50.202;10.948;2023-02-24T10:04:35;11.27;;;7.40;;
26540;SDS011;14206;50.202;10.948;2023-02-24T10:12:51;12.02;;;8.10;;
26540;SDS011;14206;50.202;10.948;2023-02-24T10:15:40;16.33;;;8.27;;
26540;SDS011;14206;50.202;10.948;2023-02-24T10:21:05;12.85;;;7.90;;
26540;SDS011;14206;50.202;10.948;2023-02-24T10:24:17;12.23;;;7.90;;
26540;SDS011;14206;50.202;10.948;2023-02-24T10:32:56;12.50;;;7.85;;
26540;SDS011;14206;50.202;10.948;2023-02-24T10:35:30;13.17;;;8.23;;
26540;SDS011;14206;50.202;10.948;2023-02-24T10:38:00;11.38;;;7.38;;
26540;SDS011;14206;50.202;10.948;2023-02-24T10:40:32;12.32;;;7.75;;
26540;SDS011;14206;50.202;10.948;2023-02-24T10:43:16;11.90;;;7.47;;
26540;SDS011;14206;50.202;10.948;2023-02-24T10:45:45;13.38;;;7.93;;
26540;SDS011;14206;50.202;10.948;2023-02-24T10:48:19;12.60;;;8.15;;
26540;SDS011;14206;50.202;10.948;2023-02-24T10:51:10;13.23;;;7.90;;
26540;SDS011;14206;50.202;10.948;2023-02-24T10:53:46;15.30;;;8.25;;
26540;SDS011;14206;50.202;10.948;2023-02-24T10:56:40;12.82;;;8.02;;
26540;SDS011;14206;50.202;10.948;2023-02-24T10:59:14;13.68;;;8.45;;
26540;SDS011;14206;50.202;10.948;2023-02-24T11:01:51;14.98;;;8.50;;
26540;SDS011;14206;50.202;10.948;2023-02-24T11:04:35;13.10;;;7.72;;
26540;SDS011;14206;50.202;10.948;2023-02-24T11:07:34;14.13;;;8.40;;
26540;SDS011;14206;50.202;10.948;2023-02-24T11:10:20;11.15;;;7.38;;
26540;SDS011;14206;50.202;10.948;2023-02-24T11:12:59;14.82;;;8.60;;
26540;SDS011;14206;50.202;10.948;2023-02-24T11:15:50;14.13;;;8.93;;
26540;SDS011;14206;50.202;10.948;2023-02-24T11:18:38;13.27;;;8.18;;
26540;SDS011;14206;50.202;10.948;2023-02-24T11:21:11;11.52;;;7.63;;
26540;SDS011;14206;50.202;10.948;2023-02-24T11:23:50;16.75;;;9.90;;
26540;SDS011;14206;50.202;10.948;2023-02-24T11:26:21;13.07;;;8.10;;
26540;SDS011;14206;50.202;10.948;2023-02-24T11:34:52;11.50;;;7.60;;
26540;SDS011;14206;50.202;10.948;2023-02-24T11:48:25;12.73;;;7.93;;
26540;SDS011;14206;50.202;10.948;2023-02-24T11:50:59;12.57;;;8.27;;
26540;SDS011;14206;50.202;10.948;2023-02-24T12:02:14;11.30;;;7.30;;
26540;SDS011;14206;50.202;10.948;2023-02-24T12:04:54;11.15;;;7.68;;
26540;SDS011;14206;50.202;10.948;2023-02-24T12:07:48;12.30;;;7.47;;
26540;SDS011;14206;50.202;10.948;2023-02-24T12:10:40;12.23;;;7.45;;
26540;SDS011;14206;50.202;10.948;2023-02-24T12:13:23;13.80;;;8.73;;
26540;SDS011;14206;50.202;10.948;2023-02-24T12:18:51;12.50;;;7.38;;
26540;SDS011;14206;50.202;10.948;2023-02-24T12:21:26;10.63;;;6.95;;
26540;SDS011;14206;50.202;10.948;2023-02-24T12:23:59;12.25;;;7.18;;
26540;SDS011;14206;50.202;10.948;2023-02-24T12:26:35;10.15;;;6.57;;
26540;SDS011;14206;50.202;10.948;2023-02-24T12:51:03;10.15;;;6.30;;
26540;SDS011;14206;50.202;10.948;2023-02-24T12:53:42;9.30;;;5.90;;
26540;SDS011;14206;50.202;10.948;2023-02-24T12:56:32;8.60;;;5.88;;
26540;SDS011;14206;50.202;10.948;2023-02-24T12:59:18;10.68;;;6.93;;
26540;SDS011;14206;50.202;10.948;2023-02-24T13:08:06;10.77;;;6.40;;
26540;SDS011;14206;50.202;10.948;2023-02-24T13:10:46;9.63;;;6.47;;
26540;SDS011;14206;50.202;10.948;2023-02-24T13:13:35;9.20;;;5.80;;
26540;SDS011;14206;50.202;10.948;2023-02-24T13:16:09;9.40;;;5.78;;
26540;SDS011;14206;50.202;10.948;2023-02-24T13:18:37;6.78;;;4.85;;
26540;SDS011;14206;50.202;10.948;2023-02-24T13:21:08;7.28;;;4.32;;
26540;SDS011;14206;50.202;10.948;2023-02-24T13:24:16;9.18;;;5.57;;
26540;SDS011;14206;50.202;10.948;2023-02-24T13:26:47;7.40;;;4.68;;
26540;SDS011;14206;50.202;10.948;2023-02-24T13:29:14;9.68;;;5.95;;
26540;SDS011;14206;50.202;10.948;2023-02-24T13:31:49;6.43;;;3.80;;
26540;SDS011;14206;50.202;10.948;2023-02-24T13:36:55;7.88;;;5.07;;
26540;SDS011;14206;50.202;10.948;2023-02-24T13:44:51;10.30;;;5.55;;
26540;SDS011;14206;50.202;10.948;2023-02-24T13:49:59;7.22;;;4.63;;
26540;SDS011;14206;50.202;10.948;2023-02-24T14:00:51;7.03;;;4.90;;
26540;SDS011;14206;50.202;10.948;2023-02-24T14:03:31;9.65;;;5.88;;
26540;SDS011;14206;50.202;10.948;2023-02-24T14:05:59;9.07;;;5.80;;
26540;SDS011;14206;50.202;10.948;2023-02-24T14:08:39;8.85;;;5.82;;
26540;SDS011;14206;50.202;10.948;2023-02-24T14:11:13;5.88;;;3.90;;
26540;SDS011;14206;50.202;10.948;2023-02-24T14:13:49;8.02;;;5.75;;
26540;SDS011;14206;50.202;10.948;2023-02-24T14:16:20;9.23;;;5.65;;
26540;SDS011;14206;50.202;10.948;2023-02-24T14:18:56;6.82;;;4.13;;
26540;SDS011;14206;50.202;10.948;2023-02-24T14:21:26;7.43;;;4.70;;
26540;SDS011;14206;50.202;10.948;2023-02-24T14:26:26;10.38;;;5.88;;
26540;SDS011;14206;50.202;10.948;2023-02-24T14:28:57;9.48;;;5.75;;
26540;SDS011;14206;50.202;10.948;2023-02-24T14:31:26;8.18;;;5.25;;
26540;SDS011;14206;50.202;10.948;2023-02-24T14:33:59;10.10;;;5.80;;
26540;SDS011;14206;50.202;10.948;2023-02-24T14:36:32;7.15;;;4.95;;
26540;SDS011;14206;50.202;10.948;2023-02-24T14:41:35;8.80;;;5.57;;
26540;SDS011;14206;50.202;10.948;2023-02-24T14:44:05;8.73;;;5.47;;
26540;SDS011;14206;50.202;10.948;2023-02-24T14:46:46;7.03;;;4.20;;
26540;SDS011;14206;50.202;10.948;2023-02-24T14:49:22;7.35;;;4.00;;
26540;SDS011;14206;50.202;10.948;2023-02-24T14:51:52;7.32;;;4.57;;
26540;SDS011;14206;50.202;10.948;2023-02-24T14:57:21;6.80;;;4.53;;
26540;SDS011;14206;50.202;10.948;2023-02-24T15:02:22;6.03;;;3.85;;
26540;SDS011;14206;50.202;10.948;2023-02-24T15:04:54;9.45;;;5.65;;
26540;SDS011;14206;50.202;10.948;2023-02-24T15:07:22;8.70;;;5.40;;
26540;SDS011;14206;50.202;10.948;2023-02-24T15:09:50;7.50;;;5.25;;
26540;SDS011;14206;50.202;10.948;2023-02-24T15:12:23;6.15;;;4.03;;
26540;SDS011;14206;50.202;10.948;2023-02-24T15:17:29;3.97;;;2.80;;
26540;SDS011;14206;50.202;10.948;2023-02-24T15:19:57;5.43;;;3.80;;
26540;SDS011;14206;50.202;10.948;2023-02-24T15:27:34;6.50;;;3.80;;
26540;SDS011;14206;50.202;10.948;2023-02-24T15:30:06;7.10;;;3.80;;
26540;SDS011;14206;50.202;10.948;2023-02-24T15:32:57;5.45;;;3.60;;
26540;SDS011;14206;50.202;10.948;2023-02-24T15:35:49;4.53;;;3.10;;
26540;SDS011;14206;50.202;10.948;2023-02-24T15:38:24;7.13;;;3.88;;
26540;SDS011;14206;50.202;10.948;2023-02-24T15:40:58;9.18;;;4.70;;
26540;SDS011;14206;50.202;10.948;2023-02-24T15:46:12;5.75;;;3.58;;
26540;SDS011;14206;50.202;10.948;2023-02-24T15:53:03;7.85;;;5.13;;
26540;SDS011;14206;50.202;10.948;2023-02-24T15:55:30;8.40;;;5.20;;
26540;SDS011;14206;50.202;10.948;2023-02-24T15:57:58;11.90;;;6.88;;
26540;SDS011;14206;50.202;10.948;2023-02-24T16:00:28;7.90;;;5.68;;
26540;SDS011;14206;50.202;10.948;2023-02-24T16:02:56;10.65;;;5.85;;
26540;SDS011;14206;50.202;10.948;2023-02-24T16:05:24;7.65;;;4.72;;
26540;SDS011;14206;50.202;10.948;2023-02-24T16:07:51;7.90;;;5.25;;
26540;SDS011;14206;50.202;10.948;2023-02-24T16:10:20;8.32;;;5.15;;
26540;SDS011;14206;50.202;10.948;2023-02-24T16:12:51;9.52;;;5.95;;
26540;SDS011;14206;50.202;10.948;2023-02-24T16:15:24;8.60;;;5.30;;
26540;SDS011;14206;50.202;10.948;2023-02-24T16:18:05;10.63;;;6.63;;
26540;SDS011;14206;50.202;10.948;2023-02-24T16:23:06;6.22;;;4.40;;
26540;SDS011;14206;50.202;10.948;2023-02-24T16:25:42;8.98;;;5.20;;
26540;SDS011;14206;50.202;10.948;2023-02-24T16:28:14;10.20;;;5.25;;
26540;SDS011;14206;50.202;10.948;2023-02-24T16:30:42;10.38;;;5.78;;
26540;SDS011;14206;50.202;10.948;2023-02-24T16:33:10;7.95;;;4.85;;
26540;SDS011;14206;50.202;10.948;2023-02-24T16:35:38;6.30;;;4.32;;
26540;SDS011;14206;50.202;10.948;2023-02-24T16:38:11;8.77;;;5.45;;
26540;SDS011;14206;50.202;10.948;2023-02-24T16:40:44;10.35;;;5.38;;
26540;SDS011;14206;50.202;10.948;2023-02-24T16:43:13;13.32;;;7.22;;
26540;SDS011;14206;50.202;10.948;2023-02-24T16:45:43;9.43;;;5.88;;
26540;SDS011;14206;50.202;10.948;2023-02-24T16:48:13;8.52;;;5.28;;
26540;SDS011;14206;50.202;10.948;2023-02-24T16:50:46;8.52;;;5.35;;
26540;SDS011;14206;50.202;10.948;2023-02-24T16:53:14;7.45;;;4.28;;
26540;SDS011;14206;50.202;10.948;2023-02-24T16:55:44;6.95;;;4.85;;
26540;SDS011;14206;50.202;10.948;2023-02-24T16:58:12;7.88;;;5.07;;
26540;SDS011;14206;50.202;10.948;2023-02-24T17:00:39;7.53;;;4.45;;
26540;SDS011;14206;50.202;10.948;2023-02-24T17:03:14;8.77;;;5.20;;
26540;SDS011;14206;50.202;10.948;2023-02-24T17:05:45;9.98;;;5.20;;
26540;SDS011;14206;50.202;10.948;2023-02-24T17:08:12;9.32;;;5.32;;
26540;SDS011;14206;50.202;10.948;2023-02-24T17:10:40;7.18;;;4.45;;
26540;SDS011;14206;50.202;10.948;2023-02-24T17:13:13;6.03;;;3.90;;
26540;SDS011;14206;50.202;10.948;2023-02-24T17:15:41;6.43;;;4.07;;
26540;SDS011;14206;50.202;10.948;2023-02-24T17:18:09;8.43;;;5.15;;
26540;SDS011;14206;50.202;10.948;2023-02-24T17:20:37;7.07;;;4.22;;
26540;SDS011;14206;50.202;10.948;2023-02-24T17:23:05;7.30;;;4.40;;
26540;SDS011;14206;50.202;10.948;2023-02-24T17:25:32;6.75;;;4.00;;
26540;SDS011;14206;50.202;10.948;2023-02-24T17:27:59;6.55;;;4.10;;
26540;SDS011;14206;50.202;10.948;2023-02-24T17:30:28;5.68;;;4.00;;
26540;SDS011;14206;50.202;10.948;2023-02-24T17:32:58;8.63;;;5.18;;
26540;SDS011;14206;50.202;10.948;2023-02-24T17:35:26;6.32;;;4.28;;
26540;SDS011;14206;50.202;10.948;2023-02-24T17:37:54;9.38;;;5.70;;
26540;SDS011;14206;50.202;10.948;2023-02-24T17:40:21;9.43;;;5.28;;
26540;SDS011;14206;50.202;10.948;2023-02-24T17:42:48;9.05;;;5.15;;
26540;SDS011;14206;50.202;10.948;2023-02-24T17:45:15;8.88;;;5.70;;
26540;SDS011;14206;50.202;10.948;2023-02-24T17:47:42;10.43;;;5.93;;
26540;SDS011;14206;50.202;10.948;2023-02-24T17:50:13;8.45;;;5.15;;
26540;SDS011;14206;50.202;10.948;2023-02-24T17:52:40;9.32;;;5.40;;
26540;SDS011;14206;50.202;10.948;2023-02-24T17:55:07;8.63;;;5.55;;